Time;durP1;ratioP1;P1;durP2;ratioP2;P2;SDS_P1;SDS_P2;PMS_P1;PMS_P2;Temp;Humidity;BMP_temperature;BMP_pressure;BME280_temperature;BME280_humidity;BME280_pressure;Samples;Min_cycle;Max_cycle;Signal;HPM_P1;HPM_P2
2021/09/12 00:00:31;;;;;;;7.10;5.20;;;18.80;83.10;;;;;;5078642;28;20201;-87
2021/09/12 00:02:57;;;;;;;5.95;5.50;;;18.80;83.10;;;;;;5081168;28;20211;-87
2021/09/12 00:05:23;;;;;;;6.10;5.40;;;18.70;83.00;;;;;;5066190;28;20199;-86
2021/09/12 00:07:48;;;;;;;5.97;5.55;;;18.70;82.90;;;;;;5061437;28;20238;-87
2021/09/12 00:10:14;;;;;;;5.15;4.75;;;18.70;81.90;;;;;;5071058;28;20195;-87
2021/09/12 00:12:40;;;;;;;5.57;5.18;;;18.60;82.80;;;;;;5080564;28;20996;-88
2021/09/12 00:15:08;;;;;;;5.35;4.65;;;18.60;82.80;;;;;;5078995;28;20222;-88
2021/09/12 00:17:34;;;;;;;8.48;5.95;;;18.60;82.80;;;;;;5077836;28;20218;-87
2021/09/12 00:20:00;;;;;;;9.32;4.70;;;18.60;81.90;;;;;;5081575;28;20601;-86
2021/09/12 00:22:26;;;;;;;5.95;5.18;;;18.50;82.40;;;;;;5081713;28;20238;-87
2021/09/12 00:24:52;;;;;;;5.90;5.47;;;18.50;82.70;;;;;;5043304;28;20199;-87
2021/09/12 00:27:17;;;;;;;6.18;5.40;;;18.50;82.90;;;;;;5066383;28;20626;-87
2021/09/12 00:29:43;;;;;;;6.03;5.43;;;18.40;82.90;;;;;;5072745;28;20215;-87
2021/09/12 00:32:09;;;;;;;8.15;5.28;;;18.40;82.60;;;;;;5043303;28;20271;-86
2021/09/12 00:34:35;;;;;;;6.28;5.78;;;18.30;82.90;;;;;;5081177;28;20195;-88
2021/09/12 00:37:01;;;;;;;6.10;5.60;;;18.40;83.10;;;;;;5084094;28;20219;-87
2021/09/12 00:39:29;;;;;;;5.47;4.97;;;18.30;83.00;;;;;;5074630;28;20200;-87
2021/09/12 00:41:55;;;;;;;5.60;5.13;;;18.30;82.80;;;;;;5078979;28;20205;-87
2021/09/12 00:44:23;;;;;;;6.35;5.53;;;18.30;82.30;;;;;;5067716;28;20179;-88
2021/09/12 00:46:52;;;;;;;6.15;5.55;;;18.30;82.30;;;;;;5076377;28;20215;-87
2021/09/12 00:49:18;;;;;;;5.43;4.65;;;18.30;82.30;;;;;;5073426;28;20270;-87
2021/09/12 00:51:44;;;;;;;5.47;4.88;;;18.30;82.20;;;;;;5085051;28;20730;-87
2021/09/12 00:54:11;;;;;;;5.07;4.72;;;18.20;82.60;;;;;;5084758;28;20191;-87
2021/09/12 00:56:39;;;;;;;5.20;4.70;;;18.20;82.60;;;;;;5059747;28;20216;-87
2021/09/12 00:59:10;;;;;;;5.68;5.28;;;18.20;82.30;;;;;;5069753;28;20225;-87
2021/09/12 01:01:36;;;;;;;6.57;5.28;;;18.20;83.20;;;;;;5083406;28;20255;-88
2021/09/12 01:04:02;;;;;;;5.00;4.68;;;18.20;82.40;;;;;;5083057;28;20198;-88
2021/09/12 01:06:30;;;;;;;5.75;4.97;;;18.10;81.70;;;;;;5079794;28;20275;-88
2021/09/12 01:08:56;;;;;;;5.65;4.88;;;18.00;82.60;;;;;;5084096;28;20175;-87
2021/09/12 01:11:22;;;;;;;5.75;4.90;;;18.00;83.00;;;;;;5062435;28;20195;-88
2021/09/12 01:13:48;;;;;;;5.20;4.80;;;18.00;82.10;;;;;;5078583;28;20210;-88
2021/09/12 01:16:17;;;;;;;5.20;4.80;;;18.00;82.60;;;;;;5082867;28;20206;-88
2021/09/12 01:18:43;;;;;;;5.20;4.80;;;18.10;82.50;;;;;;5082070;28;20200;-88
2021/09/12 01:21:15;;;;;;;5.43;4.93;;;18.00;81.90;;;;;;5072792;28;20207;-88
2021/09/12 01:23:42;;;;;;;5.47;4.82;;;17.90;82.20;;;;;;5070776;28;20255;-87
2021/09/12 01:26:08;;;;;;;5.70;4.80;;;18.00;82.30;;;;;;5084593;28;20207;-88
2021/09/12 01:28:38;;;;;;;5.00;4.60;;;18.00;82.30;;;;;;5080462;28;20179;-88
2021/09/12 01:31:04;;;;;;;6.18;4.65;;;18.00;82.20;;;;;;5081721;28;20228;-88
2021/09/12 01:33:30;;;;;;;5.38;4.97;;;17.90;81.20;;;;;;5066656;28;20180;-86
2021/09/12 01:35:56;;;;;;;7.90;5.70;;;17.90;82.10;;;;;;5080730;28;20259;-88
2021/09/12 01:38:21;;;;;;;6.65;4.97;;;17.80;82.40;;;;;;5074049;28;20255;-87
2021/09/12 01:40:47;;;;;;;6.20;4.75;;;17.90;82.10;;;;;;5081392;28;20472;-87
2021/09/12 01:43:12;;;;;;;5.55;5.15;;;17.90;81.80;;;;;;5079967;28;20223;-88
2021/09/12 01:45:38;;;;;;;7.40;5.07;;;17.80;81.30;;;;;;5061129;28;20195;-87
2021/09/12 01:48:04;;;;;;;5.40;4.90;;;17.80;81.80;;;;;;5077954;28;20215;-88
2021/09/12 01:50:31;;;;;;;5.38;4.47;;;17.70;81.80;;;;;;5061580;28;20187;-88
2021/09/12 01:52:57;;;;;;;5.72;5.22;;;17.80;81.80;;;;;;5063507;28;20221;-88
2021/09/12 01:55:22;;;;;;;6.00;5.45;;;17.80;82.00;;;;;;5066064;28;20195;-88
2021/09/12 01:57:48;;;;;;;5.35;4.95;;;17.70;81.60;;;;;;5075970;28;20199;-88
2021/09/12 02:00:14;;;;;;;5.60;5.10;;;17.70;82.20;;;;;;5064890;28;20715;-88
2021/09/12 02:02:40;;;;;;;6.05;5.30;;;17.60;82.20;;;;;;5065144;28;20208;-87
2021/09/12 02:05:07;;;;;;;5.22;4.82;;;17.60;82.00;;;;;;5076914;28;20663;-88
2021/09/12 02:07:33;;;;;;;5.43;4.97;;;17.60;82.00;;;;;;5072442;28;20201;-88
2021/09/12 02:09:59;;;;;;;5.68;4.65;;;17.50;82.10;;;;;;5071483;28;20187;-88
2021/09/12 02:12:24;;;;;;;5.20;4.60;;;17.50;82.20;;;;;;5051234;28;20224;-87
2021/09/12 02:14:50;;;;;;;5.68;5.28;;;17.40;82.40;;;;;;5075707;28;20194;-87
2021/09/12 02:17:16;;;;;;;5.13;4.72;;;17.50;82.80;;;;;;5073835;28;20270;-89
2021/09/12 02:19:42;;;;;;;5.28;4.75;;;17.50;82.70;;;;;;5072369;28;20194;-89
2021/09/12 02:22:08;;;;;;;5.05;4.70;;;17.50;82.20;;;;;;5076682;28;20206;-89
2021/09/12 02:24:35;;;;;;;5.15;4.65;;;17.50;82.10;;;;;;5075100;28;20205;-88
2021/09/12 02:27:01;;;;;;;5.22;4.80;;;17.50;81.90;;;;;;5075230;28;20215;-88
2021/09/12 02:29:27;;;;;;;5.90;5.10;;;17.40;81.70;;;;;;5061582;28;20271;-88
2021/09/12 02:31:53;;;;;;;5.22;4.72;;;17.40;81.60;;;;;;5088405;28;20240;-87
2021/09/12 02:34:46;;;;;;;5.00;4.60;;;17.40;81.40;;;;;;5074663;28;20187;-88
2021/09/12 02:37:12;;;;;;;5.20;4.68;;;17.40;81.90;;;;;;5075463;28;20308;-88
2021/09/12 02:39:37;;;;;;;5.38;4.95;;;17.40;82.30;;;;;;5078994;28;20218;-88
2021/09/12 02:42:03;;;;;;;5.18;4.68;;;17.40;82.20;;;;;;5075382;28;20286;-88
2021/09/12 02:44:29;;;;;;;5.15;4.65;;;17.30;82.90;;;;;;5080627;28;20206;-88
2021/09/12 02:46:55;;;;;;;5.30;4.38;;;17.30;82.20;;;;;;5077294;28;20237;-89
2021/09/12 02:49:20;;;;;;;5.00;4.40;;;17.30;81.90;;;;;;5065473;28;20214;-89
2021/09/12 02:51:46;;;;;;;5.90;5.27;;;17.30;82.10;;;;;;5065317;28;20206;-89
2021/09/12 02:54:12;;;;;;;12.52;4.80;;;17.20;80.90;;;;;;5075997;28;20203;-89
2021/09/12 02:56:38;;;;;;;5.03;4.53;;;17.10;82.00;;;;;;5064576;28;20216;-88
2021/09/12 02:59:03;;;;;;;6.07;4.57;;;17.10;82.00;;;;;;5049250;28;20194;-88
2021/09/12 03:01:29;;;;;;;4.72;4.43;;;17.00;81.40;;;;;;5062710;28;20213;-88
2021/09/12 03:03:55;;;;;;;5.00;4.47;;;16.90;82.60;;;;;;5072998;28;20186;-88
2021/09/12 03:06:20;;;;;;;5.10;4.70;;;16.90;82.10;;;;;;5053868;28;20209;-88
2021/09/12 03:08:46;;;;;;;5.47;4.87;;;16.90;83.70;;;;;;5074229;28;20196;-88
2021/09/12 03:11:12;;;;;;;5.55;4.50;;;16.90;84.30;;;;;;5076571;28;20193;-87
2021/09/12 03:13:38;;;;;;;5.07;4.77;;;16.90;83.20;;;;;;5056761;28;20290;-88
2021/09/12 03:16:04;;;;;;;5.30;4.90;;;16.90;83.50;;;;;;5073943;28;20225;-88
2021/09/12 03:18:30;;;;;;;4.45;4.13;;;16.90;83.70;;;;;;5050652;28;20268;-89
2021/09/12 03:20:55;;;;;;;4.57;4.28;;;17.00;83.50;;;;;;5060494;28;20222;-88
2021/09/12 03:23:21;;;;;;;4.60;4.30;;;17.00;83.80;;;;;;5064055;28;20265;-88
2021/09/12 03:25:47;;;;;;;4.80;4.40;;;17.00;84.10;;;;;;5054243;28;20189;-88
2021/09/12 03:28:13;;;;;;;4.38;4.00;;;16.90;83.70;;;;;;5066625;28;20264;-89
2021/09/12 03:30:38;;;;;;;4.10;3.77;;;17.00;83.40;;;;;;5068522;28;20214;-89
2021/09/12 03:33:04;;;;;;;4.65;4.03;;;17.00;83.00;;;;;;5051961;28;20666;-89
2021/09/12 03:35:30;;;;;;;4.65;4.25;;;17.00;83.10;;;;;;5073085;28;20210;-88
2021/09/12 03:37:56;;;;;;;3.90;3.65;;;17.00;83.00;;;;;;5065214;28;20757;-89
2021/09/12 03:40:21;;;;;;;4.50;4.07;;;17.00;83.50;;;;;;5062517;28;20201;-88
2021/09/12 03:42:47;;;;;;;4.50;4.20;;;17.00;82.90;;;;;;5079421;28;20214;-87
2021/09/12 03:45:13;;;;;;;4.25;3.95;;;16.90;82.70;;;;;;5056083;28;20261;-88
2021/09/12 03:47:39;;;;;;;5.18;4.13;;;16.90;83.10;;;;;;5069877;28;20237;-88
2021/09/12 03:50:05;;;;;;;4.40;4.10;;;17.00;83.00;;;;;;5074376;28;20198;-88
2021/09/12 03:52:31;;;;;;;4.63;4.20;;;17.00;83.40;;;;;;5062456;28;20195;-88
2021/09/12 03:54:57;;;;;;;4.47;4.13;;;17.00;83.10;;;;;;5063714;28;20213;-88
2021/09/12 03:57:23;;;;;;;6.78;4.30;;;16.90;83.40;;;;;;5073952;28;20210;-89
2021/09/12 03:59:53;;;;;;;4.83;4.23;;;16.90;84.00;;;;;;5080776;28;20249;-87
2021/09/12 04:02:19;;;;;;;4.57;4.18;;;16.90;84.50;;;;;;5069900;28;20210;-88
2021/09/12 04:04:45;;;;;;;4.00;3.70;;;17.00;84.20;;;;;;5087219;28;20172;-88
2021/09/12 04:07:11;;;;;;;3.95;3.75;;;17.00;83.50;;;;;;5090552;28;20197;-87
2021/09/12 04:09:37;;;;;;;4.10;3.80;;;17.00;83.00;;;;;;5085459;28;20201;-88
2021/09/12 04:12:03;;;;;;;5.15;3.92;;;17.00;82.70;;;;;;5079627;28;20206;-88
2021/09/12 04:14:28;;;;;;;4.00;3.70;;;16.90;81.20;;;;;;5078569;28;20192;-88
2021/09/12 04:16:54;;;;;;;3.28;3.08;;;16.90;82.20;;;;;;5063462;28;20213;-88
2021/09/12 04:19:20;;;;;;;3.85;3.55;;;16.90;82.40;;;;;;5075960;28;20635;-88
2021/09/12 04:21:45;;;;;;;4.10;3.80;;;16.80;82.20;;;;;;5066578;28;20226;-88
2021/09/12 04:24:11;;;;;;;4.18;3.75;;;16.80;82.40;;;;;;5056007;28;20197;-88
2021/09/12 04:26:37;;;;;;;4.03;3.67;;;16.70;82.80;;;;;;5081237;28;20230;-88
2021/09/12 04:29:04;;;;;;;3.90;3.70;;;16.70;83.40;;;;;;5075636;28;20240;-87
2021/09/12 04:31:29;;;;;;;4.27;3.80;;;16.70;81.60;;;;;;5078337;28;20177;-87
2021/09/12 04:33:56;;;;;;;4.23;3.83;;;16.50;80.90;;;;;;5087874;28;20194;-88
2021/09/12 04:36:22;;;;;;;4.43;3.80;;;16.50;82.30;;;;;;5054772;28;20248;-88
2021/09/12 04:38:47;;;;;;;4.63;3.87;;;16.50;82.60;;;;;;5078396;28;20776;-89
2021/09/12 04:41:13;;;;;;;5.23;3.80;;;16.50;82.40;;;;;;5078465;28;20335;-89
2021/09/12 04:43:39;;;;;;;4.10;3.70;;;16.50;82.20;;;;;;5077524;28;20204;-88
2021/09/12 04:46:05;;;;;;;4.97;4.33;;;16.50;82.20;;;;;;5067915;28;20227;-88
2021/09/12 04:48:30;;;;;;;4.20;3.80;;;16.40;82.20;;;;;;5062349;28;20193;-88
2021/09/12 04:50:56;;;;;;;4.10;3.67;;;16.40;82.40;;;;;;5074675;28;20653;-88
2021/09/12 04:53:22;;;;;;;4.17;3.87;;;16.40;82.60;;;;;;5064576;28;20210;-88
2021/09/12 04:55:48;;;;;;;3.80;3.50;;;16.30;82.10;;;;;;5061823;28;20193;-88
2021/09/12 04:58:14;;;;;;;5.57;4.30;;;16.30;83.20;;;;;;5079719;28;20216;-88
2021/09/12 05:00:40;;;;;;;4.00;3.70;;;16.30;82.50;;;;;;5059200;28;20192;-88
2021/09/12 05:03:05;;;;;;;3.83;3.47;;;16.40;82.60;;;;;;5077411;28;20221;-89
2021/09/12 05:05:37;;;;;;;3.50;3.30;;;16.40;82.50;;;;;;5077465;28;20195;-90
2021/09/12 05:08:04;;;;;;;4.00;3.70;;;16.40;82.10;;;;;;5057394;28;20261;-90
2021/09/12 05:10:30;;;;;;;4.33;3.27;;;16.30;81.70;;;;;;5073622;28;20858;-90
2021/09/12 05:12:58;;;;;;;4.90;3.37;;;16.30;82.30;;;;;;5041495;28;20256;-92
2021/09/12 05:15:24;;;;;;;5.83;4.00;;;16.30;82.30;;;;;;5076400;28;20233;-91
2021/09/12 05:17:50;;;;;;;4.27;3.50;;;16.30;82.20;;;;;;5055990;28;20958;-92
2021/09/12 05:20:16;;;;;;;4.33;3.50;;;16.30;82.20;;;;;;5078282;28;20212;-92
2021/09/12 05:22:42;;;;;;;7.40;3.87;;;16.30;81.80;;;;;;5055948;28;20223;-92
2021/09/12 05:25:17;;;;;;;7.77;3.50;;;16.30;82.10;;;;;;5072507;28;20192;-93
2021/09/12 05:27:42;;;;;;;4.07;3.43;;;16.30;82.10;;;;;;5035754;28;20204;-90
2021/09/12 05:30:09;;;;;;;3.90;3.60;;;16.30;82.30;;;;;;5053964;28;20201;-90
2021/09/12 05:32:35;;;;;;;3.90;3.50;;;16.40;82.30;;;;;;5066875;28;20217;-90
2021/09/12 05:35:01;;;;;;;5.23;3.87;;;16.30;82.60;;;;;;5053440;28;20192;-89
2021/09/12 05:37:27;;;;;;;6.00;4.00;;;16.30;83.00;;;;;;5045411;28;20216;-90
2021/09/12 05:39:52;;;;;;;4.20;3.40;;;16.40;83.30;;;;;;5079278;28;20195;-92
2021/09/12 05:42:18;;;;;;;4.13;3.73;;;16.40;83.60;;;;;;5057325;28;20219;-92
2021/09/12 05:44:44;;;;;;;6.10;4.80;;;16.40;83.50;;;;;;5063697;28;20183;-91
2021/09/12 05:47:10;;;;;;;4.77;3.53;;;16.50;83.50;;;;;;5071985;28;20709;-91
2021/09/12 05:49:36;;;;;;;3.73;3.43;;;16.50;84.10;;;;;;5075764;28;20201;-92
2021/09/12 05:52:02;;;;;;;3.90;3.60;;;16.40;84.30;;;;;;5075128;28;20212;-92
2021/09/12 05:54:28;;;;;;;3.53;3.27;;;16.40;84.60;;;;;;5078509;28;20199;-91
2021/09/12 05:56:53;;;;;;;3.83;3.53;;;16.20;85.30;;;;;;5071334;28;20216;-90
2021/09/12 05:59:19;;;;;;;3.60;3.30;;;16.30;85.60;;;;;;5053815;28;20212;-90
2021/09/12 06:01:45;;;;;;;4.00;3.63;;;16.30;86.40;;;;;;5075351;28;20213;-90
2021/09/12 06:04:11;;;;;;;3.70;3.40;;;16.30;86.20;;;;;;5033918;28;20197;-89
2021/09/12 06:06:37;;;;;;;3.60;3.30;;;16.40;86.00;;;;;;5047818;28;20204;-89
2021/09/12 06:09:16;;;;;;;3.50;3.30;;;16.50;85.90;;;;;;5076873;28;20195;-89
2021/09/12 06:11:42;;;;;;;3.77;3.47;;;16.60;85.60;;;;;;5075909;28;20820;-91
2021/09/12 06:14:08;;;;;;;4.65;3.25;;;16.60;85.20;;;;;;5055205;28;20256;-91
2021/09/12 06:16:33;;;;;;;4.03;3.10;;;16.60;85.40;;;;;;5072532;28;20232;-91
2021/09/12 06:18:59;;;;;;;3.67;3.10;;;16.70;85.40;;;;;;5067196;28;20210;-91
2021/09/12 06:21:25;;;;;;;3.47;3.20;;;16.70;85.30;;;;;;5075307;28;20216;-90
2021/09/12 06:23:50;;;;;;;3.60;3.30;;;16.70;85.30;;;;;;5075618;28;20190;-90
2021/09/12 06:26:16;;;;;;;4.00;3.60;;;16.80;85.00;;;;;;5059762;28;20233;-90
2021/09/12 06:28:42;;;;;;;3.80;3.50;;;16.80;84.40;;;;;;5047230;28;20222;-92
2021/09/12 06:31:08;;;;;;;4.18;3.78;;;16.60;85.40;;;;;;5073240;28;20193;-91
2021/09/12 06:33:34;;;;;;;4.00;3.70;;;16.70;85.80;;;;;;5066741;28;20194;-92
2021/09/12 06:35:59;;;;;;;3.33;3.03;;;16.80;85.50;;;;;;5081266;28;20657;-91
2021/09/12 06:38:25;;;;;;;5.70;3.85;;;16.90;85.50;;;;;;5077134;28;20218;-92
2021/09/12 06:40:51;;;;;;;3.60;3.30;;;16.80;85.40;;;;;;5073308;28;20230;-91
2021/09/12 06:43:17;;;;;;;5.55;3.72;;;16.80;85.80;;;;;;5093238;28;20261;-92
2021/09/12 06:45:43;;;;;;;3.90;3.60;;;16.70;86.80;;;;;;5079475;28;20182;-91
2021/09/12 06:48:09;;;;;;;4.15;3.30;;;16.70;86.60;;;;;;5076127;28;20217;-89
2021/09/12 06:50:35;;;;;;;3.63;3.33;;;16.70;86.80;;;;;;5072905;28;20304;-90
2021/09/12 06:53:01;;;;;;;3.35;3.10;;;16.70;87.10;;;;;;5064960;28;20690;-91
2021/09/12 06:55:27;;;;;;;5.13;4.13;;;16.70;87.10;;;;;;5048233;28;20284;-90
2021/09/12 06:57:52;;;;;;;4.57;4.10;;;16.70;86.30;;;;;;5068068;28;20218;-92
2021/09/12 07:00:18;;;;;;;4.80;3.47;;;16.60;86.50;;;;;;5050758;28;20200;-91
2021/09/12 07:02:44;;;;;;;4.63;4.10;;;16.70;87.20;;;;;;5072843;28;20282;-92
2021/09/12 07:05:10;;;;;;;4.03;3.72;;;16.90;86.50;;;;;;5068725;28;20751;-92
2021/09/12 07:07:36;;;;;;;3.60;3.40;;;16.90;86.00;;;;;;5062510;28;20208;-91
2021/09/12 07:10:03;;;;;;;4.55;3.75;;;17.00;85.50;;;;;;5070108;28;20191;-92
2021/09/12 07:12:28;;;;;;;3.63;3.40;;;17.10;85.60;;;;;;5069834;28;20281;-92
2021/09/12 07:14:54;;;;;;;4.32;3.92;;;17.20;86.20;;;;;;5080070;28;20182;-92
2021/09/12 07:17:20;;;;;;;4.05;3.75;;;17.30;85.50;;;;;;5068973;28;20218;-91
2021/09/12 07:19:46;;;;;;;4.18;3.75;;;17.30;85.50;;;;;;5080140;28;20268;-90
2021/09/12 07:22:12;;;;;;;4.47;4.07;;;17.30;86.00;;;;;;5080966;28;20240;-89
2021/09/12 07:24:39;;;;;;;4.47;3.78;;;17.30;86.40;;;;;;5082415;28;20185;-90
2021/09/12 07:27:05;;;;;;;3.80;3.50;;;17.40;85.10;;;;;;5079625;28;20210;-89
2021/09/12 07:29:32;;;;;;;3.88;3.40;;;17.50;85.20;;;;;;5080625;28;20210;-89
2021/09/12 07:31:59;;;;;;;4.20;3.90;;;17.40;85.90;;;;;;5081572;28;20189;-89
2021/09/12 07:34:25;;;;;;;4.80;4.07;;;17.40;85.70;;;;;;5051274;28;20792;-89
2021/09/12 07:36:51;;;;;;;5.07;4.68;;;17.50;85.30;;;;;;5067313;28;20245;-89
2021/09/12 07:39:16;;;;;;;3.80;3.60;;;17.40;85.50;;;;;;5057745;28;20187;-89
2021/09/12 07:41:42;;;;;;;4.38;4.07;;;17.50;85.70;;;;;;5072735;28;20214;-88
2021/09/12 07:44:08;;;;;;;4.43;3.63;;;17.60;84.50;;;;;;5072065;28;20912;-89
2021/09/12 07:46:34;;;;;;;4.40;3.78;;;17.60;84.80;;;;;;5074723;28;20216;-88
2021/09/12 07:49:00;;;;;;;4.40;4.00;;;17.70;84.70;;;;;;5077851;28;20240;-89
2021/09/12 07:51:25;;;;;;;4.13;3.83;;;17.70;85.20;;;;;;5075725;28;20251;-90
2021/09/12 07:53:51;;;;;;;3.90;3.40;;;17.90;84.20;;;;;;5076244;28;20678;-89
2021/09/12 07:56:17;;;;;;;4.35;3.95;;;18.10;83.60;;;;;;5077252;28;20310;-89
2021/09/12 07:58:43;;;;;;;3.83;3.53;;;18.10;83.70;;;;;;5074142;28;20203;-90
2021/09/12 08:01:09;;;;;;;4.07;3.78;;;18.20;82.60;;;;;;5072685;28;20249;-90
2021/09/12 08:03:35;;;;;;;4.22;3.80;;;18.20;83.60;;;;;;5061076;28;21063;-90
2021/09/12 08:06:01;;;;;;;4.00;3.75;;;18.20;84.00;;;;;;5064474;28;21317;-89
2021/09/12 08:08:27;;;;;;;4.10;3.70;;;18.40;83.30;;;;;;5069607;28;20196;-90
2021/09/12 08:10:53;;;;;;;4.78;4.25;;;18.40;82.70;;;;;;5071132;28;20214;-89
2021/09/12 08:13:18;;;;;;;4.68;4.28;;;18.50;82.10;;;;;;5054633;28;20714;-90
2021/09/12 08:15:44;;;;;;;4.85;4.45;;;18.40;82.60;;;;;;5065140;28;20176;-89
2021/09/12 08:18:10;;;;;;;4.45;4.10;;;18.60;82.80;;;;;;5066585;28;20216;-90
2021/09/12 08:20:36;;;;;;;4.75;4.35;;;18.60;83.00;;;;;;5065952;28;20195;-89
2021/09/12 08:23:02;;;;;;;3.92;3.63;;;18.80;82.10;;;;;;5059908;28;20220;-91
2021/09/12 08:25:28;;;;;;;4.93;3.97;;;18.90;81.60;;;;;;5063007;28;20187;-89
2021/09/12 08:27:53;;;;;;;3.83;3.53;;;19.10;81.20;;;;;;5064364;28;21368;-90
2021/09/12 08:30:19;;;;;;;4.13;3.83;;;19.20;79.80;;;;;;5035493;28;20196;-90
2021/09/12 08:32:45;;;;;;;4.07;3.75;;;19.20;80.60;;;;;;5052036;28;20191;-90
2021/09/12 08:35:11;;;;;;;4.45;4.05;;;19.30;80.40;;;;;;5069432;28;20195;-90
2021/09/12 08:37:37;;;;;;;4.63;3.83;;;19.40;80.90;;;;;;5069222;28;20223;-90
2021/09/12 08:40:04;;;;;;;3.90;3.60;;;19.60;79.20;;;;;;5067623;28;20249;-90
2021/09/12 08:42:31;;;;;;;5.25;3.90;;;19.70;78.70;;;;;;5068215;28;20204;-88
2021/09/12 08:44:58;;;;;;;4.25;3.85;;;19.70;78.80;;;;;;5073674;28;20704;-90
2021/09/12 08:47:26;;;;;;;4.35;3.60;;;19.80;78.50;;;;;;5089690;28;20190;-90
2021/09/12 08:49:52;;;;;;;4.20;3.80;;;19.80;77.10;;;;;;5071079;28;20188;-89
2021/09/12 08:52:18;;;;;;;4.93;4.20;;;19.90;77.70;;;;;;5072550;28;20271;-89
2021/09/12 08:54:44;;;;;;;4.30;4.00;;;20.10;77.80;;;;;;5092604;28;20199;-90
2021/09/12 08:57:10;;;;;;;5.60;4.10;;;20.10;76.70;;;;;;5089366;28;20218;-89
2021/09/12 08:59:36;;;;;;;4.65;4.18;;;20.30;74.40;;;;;;5080018;28;20194;-88
2021/09/12 09:02:06;;;;;;;4.15;3.47;;;20.50;74.60;;;;;;5090933;28;20235;-89
2021/09/12 09:04:34;;;;;;;4.63;3.78;;;20.60;73.00;;;;;;5093372;28;20203;-90
2021/09/12 09:07:01;;;;;;;4.25;3.83;;;20.70;73.00;;;;;;5084354;28;20190;-90
2021/09/12 09:09:45;;;;;;;3.75;3.45;;;20.60;73.20;;;;;;5077099;28;20177;-90
2021/09/12 09:12:23;;;;;;;4.00;3.72;;;20.80;72.50;;;;;;5083209;28;20195;-91
2021/09/12 09:15:10;;;;;;;4.15;3.80;;;20.70;72.40;;;;;;5072920;28;20697;-91
2021/09/12 09:17:46;;;;;;;4.07;3.78;;;20.80;72.80;;;;;;5073169;28;20214;-90
2021/09/12 09:20:18;;;;;;;3.65;3.35;;;21.00;71.90;;;;;;5074466;28;20194;-89
2021/09/12 09:22:47;;;;;;;6.18;3.58;;;21.40;69.90;;;;;;5077024;28;20288;-89
2021/09/12 09:25:26;;;;;;;3.90;3.60;;;21.50;71.00;;;;;;5082823;28;20208;-90
2021/09/12 09:27:52;;;;;;;4.05;3.75;;;21.70;69.30;;;;;;5080552;28;20207;-90
2021/09/12 09:30:18;;;;;;;3.80;3.50;;;21.70;68.70;;;;;;5060071;28;20226;-88
2021/09/12 09:32:44;;;;;;;3.85;3.55;;;22.10;66.30;;;;;;5074513;28;20195;-90
2021/09/12 09:35:20;;;;;;;4.55;4.18;;;22.30;66.30;;;;;;5084892;28;20202;-91
2021/09/12 09:37:47;;;;;;;4.35;3.78;;;22.30;65.60;;;;;;5095300;28;20214;-90
2021/09/12 09:40:13;;;;;;;3.50;3.30;;;22.40;66.10;;;;;;5093351;28;20206;-90
2021/09/12 09:42:44;;;;;;;4.30;3.72;;;22.50;65.80;;;;;;5087308;28;20274;-91
2021/09/12 09:45:24;;;;;;;4.70;3.60;;;22.50;65.50;;;;;;5082978;28;20195;-91
2021/09/12 09:47:52;;;;;;;4.05;3.47;;;22.80;62.60;;;;;;5064471;28;20196;-92
2021/09/12 09:50:20;;;;;;;3.70;3.50;;;23.00;62.80;;;;;;5081659;28;20190;-91
2021/09/12 09:52:51;;;;;;;3.42;3.13;;;23.10;62.00;;;;;;5081850;28;20557;-91
2021/09/12 09:55:19;;;;;;;3.22;3.03;;;23.30;60.50;;;;;;5065308;28;20223;-90
2021/09/12 09:57:46;;;;;;;4.00;3.08;;;23.30;60.70;;;;;;5062238;28;20296;-91
2021/09/12 10:00:13;;;;;;;3.80;3.50;;;23.40;59.40;;;;;;5068701;28;20202;-91
2021/09/12 10:02:40;;;;;;;3.47;3.17;;;23.40;60.50;;;;;;5068711;28;20301;-91
2021/09/12 10:05:08;;;;;;;3.20;2.90;;;23.50;59.80;;;;;;5068728;28;20541;-91
2021/09/12 10:07:36;;;;;;;3.40;3.10;;;23.90;55.90;;;;;;5077074;28;20207;-91
2021/09/12 10:10:04;;;;;;;2.95;2.63;;;24.00;54.80;;;;;;5078156;28;20743;-91
2021/09/12 10:12:31;;;;;;;3.15;2.72;;;24.40;55.30;;;;;;5061500;28;20188;-91
2021/09/12 10:15:10;;;;;;;3.08;2.85;;;24.60;54.80;;;;;;5076062;28;20210;-91
2021/09/12 10:17:41;;;;;;;2.85;2.65;;;24.70;55.80;;;;;;5075429;28;20262;-91
2021/09/12 10:20:11;;;;;;;3.35;2.83;;;24.60;55.20;;;;;;5076426;28;20325;-91
2021/09/12 10:23:01;;;;;;;3.03;2.58;;;24.70;53.80;;;;;;5079518;28;20257;-91
2021/09/12 10:25:46;;;;;;;3.00;2.80;;;24.60;54.40;;;;;;5074230;28;20199;-92
2021/09/12 10:28:12;;;;;;;3.25;2.92;;;24.70;54.60;;;;;;5074000;28;20215;-91
2021/09/12 10:30:42;;;;;;;3.42;2.88;;;25.00;53.80;;;;;;5057947;28;20857;-91
2021/09/12 10:33:08;;;;;;;3.38;2.78;;;25.10;53.90;;;;;;5076792;28;20211;-92
2021/09/12 10:35:45;;;;;;;2.90;2.70;;;25.20;51.60;;;;;;5068154;28;20195;-91
2021/09/12 10:38:13;;;;;;;3.17;2.50;;;25.40;52.00;;;;;;5072084;28;20219;-91
2021/09/12 10:40:48;;;;;;;5.53;2.58;;;25.30;53.10;;;;;;5077770;28;20278;-91
2021/09/12 10:43:26;;;;;;;4.30;2.60;;;25.40;48.50;;;;;;5062138;28;20580;-91
2021/09/12 10:46:04;;;;;;;2.78;2.30;;;25.40;46.00;;;;;;5071111;28;20190;-92
2021/09/12 10:48:32;;;;;;;2.50;2.30;;;25.70;46.40;;;;;;5074365;28;20180;-91
2021/09/12 10:50:59;;;;;;;2.28;2.17;;;25.90;46.90;;;;;;5079236;28;20190;-91
2021/09/12 10:53:47;;;;;;;2.53;2.35;;;25.90;47.50;;;;;;5049035;28;20188;-92
2021/09/12 10:56:15;;;;;;;2.90;2.70;;;26.00;47.40;;;;;;5070971;28;20209;-91
2021/09/12 10:58:42;;;;;;;3.05;2.50;;;26.40;46.10;;;;;;5077877;28;20340;-91
2021/09/12 11:01:11;;;;;;;2.65;2.45;;;26.40;45.20;;;;;;5076341;28;20195;-91
2021/09/12 11:03:45;;;;;;;3.05;2.70;;;26.30;45.10;;;;;;5063761;28;20265;-91
2021/09/12 11:06:17;;;;;;;2.70;2.50;;;26.20;45.10;;;;;;5073340;28;20238;-91
2021/09/12 11:08:46;;;;;;;4.80;2.60;;;26.10;46.40;;;;;;5048217;28;20191;-91
2021/09/12 11:11:12;;;;;;;2.90;2.70;;;26.20;45.00;;;;;;5046002;28;20275;-91
2021/09/12 11:13:39;;;;;;;3.35;3.08;;;26.30;44.90;;;;;;5069601;28;20199;-91
2021/09/12 11:16:10;;;;;;;2.70;2.50;;;26.00;48.80;;;;;;5059284;28;20223;-91
2021/09/12 11:18:53;;;;;;;2.67;2.47;;;25.90;45.50;;;;;;5062980;28;20380;-91
2021/09/12 11:21:40;;;;;;;3.25;3.00;;;26.10;46.40;;;;;;5034195;28;20222;-90
2021/09/12 11:24:10;;;;;;;2.72;2.53;;;26.30;47.30;;;;;;5051202;28;20184;-92
2021/09/12 11:26:51;;;;;;;3.03;2.70;;;26.30;46.20;;;;;;5062149;28;20199;-91
2021/09/12 11:29:20;;;;;;;2.95;2.70;;;26.10;47.20;;;;;;5060075;28;20216;-91
2021/09/12 11:31:48;;;;;;;3.10;2.80;;;26.10;46.50;;;;;;5058773;28;20199;-92
2021/09/12 11:34:17;;;;;;;3.47;2.97;;;26.30;47.10;;;;;;5076506;28;20215;-93
2021/09/12 11:36:46;;;;;;;2.97;2.65;;;26.70;45.40;;;;;;5078593;28;20204;-92
2021/09/12 11:39:14;;;;;;;3.35;3.05;;;27.10;44.00;;;;;;5049148;28;20199;-90
2021/09/12 11:41:41;;;;;;;6.15;2.80;;;27.30;43.10;;;;;;5058164;28;20291;-89
2021/09/12 11:44:10;;;;;;;3.22;2.92;;;27.40;43.10;;;;;;5081224;28;20187;-90
2021/09/12 11:46:45;;;;;;;2.75;2.55;;;27.10;42.60;;;;;;5062097;28;20196;-90
2021/09/12 11:49:11;;;;;;;2.83;2.47;;;26.70;44.10;;;;;;5092933;28;20202;-89
2021/09/12 11:51:40;;;;;;;2.67;2.45;;;27.00;42.80;;;;;;5072426;28;20172;-89
2021/09/12 11:54:20;;;;;;;3.00;2.80;;;26.90;43.10;;;;;;5079609;28;20724;-90
2021/09/12 11:56:54;;;;;;;3.08;2.88;;;27.10;43.80;;;;;;5068303;28;20593;-91
2021/09/12 11:59:20;;;;;;;4.32;2.78;;;26.50;44.00;;;;;;5051007;28;20816;-91
2021/09/12 12:01:49;;;;;;;2.75;2.55;;;26.70;43.90;;;;;;5048027;28;20223;-90
2021/09/12 12:04:16;;;;;;;2.90;2.70;;;27.00;43.50;;;;;;5062742;28;20175;-91
2021/09/12 12:06:46;;;;;;;3.17;2.55;;;26.80;43.80;;;;;;5057370;28;20884;-91
2021/09/12 12:09:15;;;;;;;3.10;2.90;;;26.80;44.20;;;;;;5061550;28;20202;-90
2021/09/12 12:11:54;;;;;;;3.25;3.00;;;27.50;42.90;;;;;;5079131;28;20168;-90
2021/09/12 12:14:25;;;;;;;2.90;2.70;;;27.70;41.70;;;;;;5081536;28;20179;-90
2021/09/12 12:16:52;;;;;;;2.40;2.30;;;28.10;41.30;;;;;;5065155;28;20291;-90
2021/09/12 12:19:20;;;;;;;3.90;2.85;;;28.40;39.90;;;;;;5062999;28;20176;-90
2021/09/12 12:21:49;;;;;;;3.00;2.60;;;28.70;40.00;;;;;;5051702;28;20212;-90
2021/09/12 12:24:23;;;;;;;2.85;2.65;;;28.60;38.80;;;;;;5060144;28;20551;-91
2021/09/12 12:26:54;;;;;;;2.95;2.75;;;28.90;38.20;;;;;;5058071;28;20206;-91
2021/09/12 12:29:28;;;;;;;2.95;2.75;;;29.20;38.80;;;;;;5080466;28;20184;-91
2021/09/12 12:32:02;;;;;;;2.90;2.70;;;28.80;39.00;;;;;;5050124;28;20227;-91
2021/09/12 12:34:50;;;;;;;3.28;3.00;;;28.40;39.10;;;;;;5078171;28;20252;-90
2021/09/12 12:37:20;;;;;;;3.33;3.05;;;28.30;40.30;;;;;;5072788;28;20267;-91
2021/09/12 12:39:59;;;;;;;3.10;2.80;;;28.40;38.50;;;;;;5069120;28;20191;-91
2021/09/12 12:42:36;;;;;;;3.13;2.83;;;28.00;40.10;;;;;;5049018;28;20208;-90
2021/09/12 12:45:18;;;;;;;2.80;2.60;;;27.90;40.50;;;;;;5078490;28;20183;-91
2021/09/12 12:47:44;;;;;;;3.28;3.00;;;28.50;40.40;;;;;;5059233;28;20207;-91
2021/09/12 12:50:10;;;;;;;4.18;2.90;;;28.80;40.00;;;;;;5057048;28;20187;-91